Time;durP1;ratioP1;P1;durP2;ratioP2;P2;SDS_P1;SDS_P2;PMS_P1;PMS_P2;Temp;Humidity;BMP_temperature;BMP_pressure;BME280_temperature;BME280_humidity;BME280_pressure;Samples;Min_cycle;Max_cycle;Signal;HPM_P1;HPM_P2
2023/05/20 00:01:26;;;;;;;7.78;5.18;;;;;;;11.12;74.13;95106.47;5043565;28;20029;-74
2023/05/20 00:03:52;;;;;;;6.88;5.50;;;;;;;11.04;74.13;95105.44;5048029;28;20033;-75
2023/05/20 00:06:17;;;;;;;7.55;5.55;;;;;;;10.95;74.26;95097.44;5046901;28;20029;-75
2023/05/20 00:08:43;;;;;;;7.28;5.10;;;;;;;11.00;73.87;95091.03;5014047;28;20045;-75
2023/05/20 00:11:08;;;;;;;6.78;4.78;;;;;;;11.08;73.62;95099.03;5047598;28;20029;-75
2023/05/20 00:13:35;;;;;;;6.40;4.75;;;;;;;11.08;73.68;95097.25;5046307;28;20051;-75
2023/05/20 00:16:00;;;;;;;6.43;5.35;;;;;;;11.16;72.88;95092.28;5028135;28;20033;-75
2023/05/20 00:18:26;;;;;;;8.88;5.38;;;;;;;10.99;73.79;95097.19;5048546;28;20061;-75
2023/05/20 00:20:53;;;;;;;8.50;5.07;;;;;;;11.05;73.53;95100.09;5030563;28;20034;-75
2023/05/20 00:23:18;;;;;;;8.60;5.80;;;;;;;10.91;74.19;95105.59;5046126;28;20041;-75
2023/05/20 00:25:44;;;;;;;10.32;5.80;;;;;;;11.03;74.15;95111.56;5027895;28;20059;-75
2023/05/20 00:28:09;;;;;;;9.80;6.00;;;;;;;10.94;74.60;95111.34;5046513;28;20506;-75
2023/05/20 00:30:35;;;;;;;8.40;5.68;;;;;;;11.08;74.52;95112.03;5047295;28;20495;-75
2023/05/20 00:33:00;;;;;;;9.43;5.72;;;;;;;11.04;74.61;95110.66;5047059;28;20029;-75
2023/05/20 00:35:26;;;;;;;8.98;5.80;;;;;;;10.94;74.31;95103.56;5046013;28;20029;-75
2023/05/20 00:37:51;;;;;;;9.32;5.57;;;;;;;10.82;75.09;95095.94;5046775;28;20036;-75
2023/05/20 00:40:17;;;;;;;7.00;5.20;;;;;;;10.95;74.55;95096.63;5045751;28;20032;-75
2023/05/20 00:42:42;;;;;;;9.63;5.32;;;;;;;10.80;74.42;95092.63;5045723;28;20159;-75
2023/05/20 00:45:08;;;;;;;6.95;5.50;;;;;;;10.79;74.22;95078.00;5044419;28;20086;-75
2023/05/20 00:47:35;;;;;;;12.15;5.50;;;;;;;10.89;74.01;95069.34;5048236;28;20115;-75
2023/05/20 00:50:00;;;;;;;8.27;5.38;;;;;;;10.89;73.93;95065.88;5029589;28;20040;-76
2023/05/20 00:52:26;;;;;;;8.57;5.45;;;;;;;10.78;74.14;95050.34;5028834;28;20033;-75
2023/05/20 00:54:52;;;;;;;8.93;5.20;;;;;;;10.77;73.88;95052.09;5028454;28;20029;-75
2023/05/20 00:57:18;;;;;;;7.78;5.07;;;;;;;10.60;73.84;95066.44;5045655;28;20453;-76
2023/05/20 00:59:43;;;;;;;7.60;5.00;;;;;;;10.58;73.82;95057.13;5045824;28;20033;-75
2023/05/20 01:02:09;;;;;;;7.55;5.25;;;;;;;10.64;73.67;95056.63;5045993;28;20103;-75
2023/05/20 01:04:35;;;;;;;8.02;5.63;;;;;;;10.55;74.21;95065.97;5045658;28;20039;-75
2023/05/20 01:07:03;;;;;;;6.07;4.93;;;;;;;10.59;74.16;95063.97;5044058;28;20029;-76
2023/05/20 01:09:30;;;;;;;9.30;4.93;;;;;;;10.67;73.87;95077.16;5028477;28;20075;-75
2023/05/20 01:12:02;;;;;;;7.25;5.38;;;;;;;10.71;74.18;95084.59;5028599;28;20062;-76
2023/05/20 01:14:29;;;;;;;6.90;4.93;;;;;;;10.70;74.99;95093.34;5045369;28;20051;-76
2023/05/20 01:16:57;;;;;;;7.95;5.35;;;;;;;10.64;74.13;95078.25;5027217;28;20032;-75
2023/05/20 01:19:44;;;;;;;7.88;5.55;;;;;;;10.73;73.96;95087.91;5030352;28;20045;-75
2023/05/20 01:22:13;;;;;;;9.10;5.22;;;;;;;10.70;74.82;95097.72;5010353;28;20037;-76
2023/05/20 01:24:43;;;;;;;6.68;5.28;;;;;;;10.68;74.80;95095.25;5030297;28;20021;-75
2023/05/20 01:27:12;;;;;;;6.80;5.32;;;;;;;10.42;75.31;95088.66;5009051;28;20531;-75
2023/05/20 01:29:38;;;;;;;11.05;5.63;;;;;;;10.44;75.57;95086.75;5014153;28;20029;-75
2023/05/20 01:32:11;;;;;;;9.25;5.18;;;;;;;10.44;75.36;95092.78;5027256;28;20112;-75
2023/05/20 01:34:37;;;;;;;6.55;5.22;;;;;;;10.39;75.68;95079.34;5014469;28;20032;-75
2023/05/20 01:37:04;;;;;;;6.57;5.18;;;;;;;10.37;75.42;95075.22;5027035;28;20025;-75
2023/05/20 01:39:29;;;;;;;8.05;5.20;;;;;;;10.36;75.04;95079.56;5030284;28;20086;-76
2023/05/20 01:41:55;;;;;;;9.15;5.97;;;;;;;10.38;74.76;95071.66;5012259;28;20029;-76
2023/05/20 01:44:20;;;;;;;8.10;5.43;;;;;;;10.41;74.53;95076.63;5029734;28;20489;-76
2023/05/20 01:46:49;;;;;;;7.88;5.45;;;;;;;10.32;74.58;95075.56;5043882;28;20033;-75
2023/05/20 01:49:15;;;;;;;7.32;5.40;;;;;;;10.30;74.70;95082.66;5028955;28;20420;-75
2023/05/20 01:51:40;;;;;;;6.80;5.20;;;;;;;10.25;74.92;95083.00;5014995;28;20072;-75
2023/05/20 01:54:06;;;;;;;7.68;4.97;;;;;;;10.20;74.91;95076.50;5048705;28;20073;-75
2023/05/20 01:56:31;;;;;;;6.88;4.57;;;;;;;10.28;74.77;95074.16;5047854;28;20048;-75
2023/05/20 01:58:57;;;;;;;7.10;5.10;;;;;;;10.34;74.70;95070.28;5049904;28;20032;-75
2023/05/20 02:01:22;;;;;;;6.55;5.20;;;;;;;10.24;74.55;95055.34;5049562;28;20029;-75
2023/05/20 02:03:47;;;;;;;6.97;4.88;;;;;;;10.47;74.46;95081.31;5048400;28;20264;-75
2023/05/20 02:06:13;;;;;;;8.48;4.97;;;;;;;10.28;75.10;95066.38;5047230;28;20029;-75
2023/05/20 02:08:38;;;;;;;7.38;5.45;;;;;;;10.38;74.81;95071.66;5048630;28;20053;-75
2023/05/20 02:11:04;;;;;;;8.25;5.60;;;;;;;10.24;74.87;95068.34;5032001;28;20048;-75
2023/05/20 02:13:29;;;;;;;7.60;5.47;;;;;;;10.48;74.84;95072.63;5032039;28;20037;-75
2023/05/20 02:15:55;;;;;;;7.40;4.90;;;;;;;10.35;74.42;95069.31;5048397;28;20040;-75
2023/05/20 02:18:21;;;;;;;6.65;5.00;;;;;;;10.38;74.67;95056.91;5051320;28;20032;-75
2023/05/20 02:20:46;;;;;;;7.72;5.43;;;;;;;10.39;74.55;95068.97;5049682;28;20035;-75
2023/05/20 02:23:12;;;;;;;6.13;4.95;;;;;;;10.16;74.90;95068.09;5048372;28;20036;-75
2023/05/20 02:25:37;;;;;;;9.38;5.55;;;;;;;10.17;74.64;95069.78;5013798;28;20036;-75
2023/05/20 02:28:04;;;;;;;8.98;5.05;;;;;;;9.82;75.15;95038.72;5032483;28;20048;-75
2023/05/20 02:30:30;;;;;;;7.95;5.10;;;;;;;9.92;75.71;95059.59;5048833;28;20064;-75
2023/05/20 02:32:56;;;;;;;7.53;5.50;;;;;;;9.96;75.79;95061.03;5015031;28;20532;-75
2023/05/20 02:35:22;;;;;;;7.22;5.50;;;;;;;9.92;75.79;95065.63;5046729;28;20029;-75
2023/05/20 02:37:47;;;;;;;8.10;5.00;;;;;;;10.03;76.21;95059.63;5048016;28;20036;-75
2023/05/20 02:40:13;;;;;;;7.72;5.25;;;;;;;9.95;75.75;95054.19;5049425;28;20068;-75
2023/05/20 02:42:39;;;;;;;13.20;5.65;;;;;;;9.87;76.20;95056.53;5047787;28;20044;-75
2023/05/20 02:45:06;;;;;;;6.80;5.05;;;;;;;9.97;75.87;95062.66;5046847;28;20028;-75
2023/05/20 02:47:31;;;;;;;6.97;5.03;;;;;;;9.96;75.46;95056.66;5049123;28;20029;-75
2023/05/20 02:49:56;;;;;;;8.10;5.25;;;;;;;9.94;75.76;95068.09;5047626;28;20427;-75
2023/05/20 02:52:22;;;;;;;8.65;4.88;;;;;;;10.03;75.67;95062.22;5048966;28;20064;-74
2023/05/20 02:54:47;;;;;;;6.72;5.20;;;;;;;10.05;75.43;95057.72;5031515;28;20086;-75
2023/05/20 02:57:13;;;;;;;6.50;5.28;;;;;;;10.02;75.25;95063.97;5048854;28;20033;-75
2023/05/20 02:59:38;;;;;;;6.22;5.30;;;;;;;10.03;75.36;95060.44;5031641;28;20028;-74
2023/05/20 03:02:04;;;;;;;10.48;5.43;;;;;;;10.00;75.42;95052.03;5046544;28;20033;-74
2023/05/20 03:04:30;;;;;;;7.90;5.35;;;;;;;10.07;75.24;95048.06;5012097;28;20075;-74
2023/05/20 03:06:56;;;;;;;7.60;5.45;;;;;;;10.17;75.20;95059.38;5046009;28;20111;-75
2023/05/20 03:09:23;;;;;;;7.47;5.28;;;;;;;10.18;75.31;95066.22;5031029;28;20049;-74
2023/05/20 03:11:49;;;;;;;6.75;5.28;;;;;;;10.21;75.06;95065.16;5044023;28;20108;-75
2023/05/20 03:14:15;;;;;;;7.10;4.97;;;;;;;10.21;75.03;95065.97;5029387;28;20136;-75
2023/05/20 03:16:40;;;;;;;7.60;5.55;;;;;;;10.26;74.97;95071.66;5045731;28;20568;-75
2023/05/20 03:19:06;;;;;;;7.35;5.45;;;;;;;10.16;75.38;95078.47;5047680;28;20415;-75
2023/05/20 03:21:32;;;;;;;7.65;5.20;;;;;;;10.17;75.53;95072.38;5048824;28;20068;-75
2023/05/20 03:23:58;;;;;;;6.50;5.38;;;;;;;10.14;75.40;95072.59;5049226;28;20056;-74
2023/05/20 03:26:24;;;;;;;8.52;5.63;;;;;;;10.16;75.20;95073.28;5045290;28;20179;-74
2023/05/20 03:28:50;;;;;;;6.30;5.55;;;;;;;10.24;74.90;95070.94;5047029;28;20029;-74
2023/05/20 03:31:16;;;;;;;6.75;5.22;;;;;;;10.19;74.79;95078.25;5041772;28;20124;-74
2023/05/20 03:33:41;;;;;;;6.38;5.18;;;;;;;10.12;75.29;95079.69;5045726;28;20071;-74
2023/05/20 03:36:07;;;;;;;8.70;5.80;;;;;;;10.25;75.10;95082.13;5041161;28;20020;-74
2023/05/20 03:38:32;;;;;;;10.55;5.70;;;;;;;10.21;74.78;95086.75;5046385;28;20060;-74
2023/05/20 03:40:58;;;;;;;7.32;5.13;;;;;;;10.42;74.01;95086.06;5047379;28;20036;-74
2023/05/20 03:43:24;;;;;;;6.68;5.07;;;;;;;10.41;73.70;95085.22;5047062;28;20047;-74
2023/05/20 03:45:49;;;;;;;7.50;5.30;;;;;;;10.35;74.18;95075.31;5046321;28;20448;-74
2023/05/20 03:48:15;;;;;;;7.78;5.28;;;;;;;10.69;73.97;95090.88;5013768;28;20040;-74
2023/05/20 03:50:41;;;;;;;9.73;7.18;;;;;;;10.52;74.12;95094.78;5047134;28;20037;-75
2023/05/20 03:53:07;;;;;;;7.57;6.40;;;;;;;10.45;74.44;95097.06;5047254;28;20491;-75
2023/05/20 03:55:32;;;;;;;8.55;6.93;;;;;;;10.43;74.63;95100.72;5045737;28;20040;-75
2023/05/20 03:57:58;;;;;;;8.55;6.32;;;;;;;10.52;74.28;95105.19;5046895;28;20064;-75
2023/05/20 04:00:23;;;;;;;12.15;6.53;;;;;;;10.47;75.01;95110.75;5046554;28;20025;-74
2023/05/20 04:02:49;;;;;;;7.70;5.93;;;;;;;10.92;73.78;95110.69;5046634;28;20033;-74
2023/05/20 04:05:14;;;;;;;8.35;6.60;;;;;;;11.21;72.76;95117.09;5028161;28;20058;-75
2023/05/20 04:07:40;;;;;;;8.10;6.10;;;;;;;11.66;71.65;95115.13;5047795;28;20131;-74
2023/05/20 04:10:06;;;;;;;10.35;6.70;;;;;;;12.49;69.14;95110.81;5047898;28;20049;-74
2023/05/20 04:12:31;;;;;;;8.95;6.38;;;;;;;12.89;66.39;95097.75;5047360;28;20029;-75
2023/05/20 04:15:01;;;;;;;10.13;6.00;;;;;;;13.62;64.62;95115.69;5044468;28;20037;-75
2023/05/20 04:17:28;;;;;;;8.43;5.93;;;;;;;14.63;62.02;95111.63;5046328;28;20029;-75
2023/05/20 04:19:55;;;;;;;11.25;6.25;;;;;;;14.86;59.78;95111.25;5045828;28;20032;-75
2023/05/20 04:22:21;;;;;;;10.18;6.03;;;;;;;15.21;58.75;95107.88;5046479;28;20041;-75
2023/05/20 04:24:46;;;;;;;9.02;5.65;;;;;;;16.06;56.32;95101.22;5047024;28;20538;-75
2023/05/20 04:27:12;;;;;;;11.35;6.53;;;;;;;16.86;54.74;95095.78;5046651;28;20471;-75
2023/05/20 04:29:40;;;;;;;6.80;6.03;;;;;;;17.28;53.57;95092.28;5048629;28;20027;-75
2023/05/20 04:32:06;;;;;;;8.88;5.45;;;;;;;17.24;52.67;95087.50;5044541;28;20502;-75
2023/05/20 04:34:33;;;;;;;9.20;5.97;;;;;;;17.66;51.22;95090.00;5031098;28;20110;-75
2023/05/20 04:37:00;;;;;;;8.38;5.85;;;;;;;17.82;50.97;95074.28;5045425;28;20028;-74
2023/05/20 04:39:25;;;;;;;7.93;5.88;;;;;;;18.32;50.21;95101.31;5045566;28;20075;-75
2023/05/20 04:41:53;;;;;;;7.85;5.65;;;;;;;17.96;49.71;95101.69;5028665;28;20028;-75
2023/05/20 04:44:19;;;;;;;7.55;5.63;;;;;;;18.07;50.48;95106.63;5045555;28;20033;-75
2023/05/20 04:46:44;;;;;;;7.53;5.35;;;;;;;18.28;49.40;95111.38;5042905;28;20035;-75
2023/05/20 04:49:10;;;;;;;8.27;5.35;;;;;;;18.11;50.65;95112.38;5045887;28;20041;-75
2023/05/20 04:51:36;;;;;;;7.28;5.00;;;;;;;17.46;51.91;95115.78;5046809;28;20029;-75
2023/05/20 04:54:01;;;;;;;7.57;5.32;;;;;;;17.31;52.71;95122.66;5046594;28;20037;-75
2023/05/20 04:56:27;;;;;;;8.57;5.60;;;;;;;17.39;53.02;95115.59;5045694;28;20048;-75
2023/05/20 04:58:53;;;;;;;9.15;5.75;;;;;;;16.74;53.64;95107.50;5046810;28;20505;-75
2023/05/20 05:01:18;;;;;;;9.43;6.28;;;;;;;16.39;55.00;95117.16;5045049;28;20032;-75
2023/05/20 05:03:44;;;;;;;7.82;6.38;;;;;;;16.26;55.87;95122.00;5045513;28;20411;-75
2023/05/20 05:06:09;;;;;;;9.05;7.15;;;;;;;16.59;56.21;95122.19;5044227;28;20423;-75
2023/05/20 05:08:35;;;;;;;10.10;6.90;;;;;;;16.70;55.14;95112.25;5047051;28;20049;-75
2023/05/20 05:11:00;;;;;;;11.73;7.32;;;;;;;16.84;56.52;95115.28;5030242;28;20044;-75
2023/05/20 05:13:26;;;;;;;9.40;6.72;;;;;;;16.90;55.54;95119.91;5045441;28;20060;-75
2023/05/20 05:16:13;;;;;;;10.80;7.28;;;;;;;16.39;56.41;95119.78;5036231;28;20076;-75
2023/05/20 05:18:39;;;;;;;11.02;6.60;;;;;;;16.37;56.74;95113.06;5026827;28;20029;-74
2023/05/20 05:21:05;;;;;;;9.05;6.03;;;;;;;16.63;57.10;95113.03;5023780;28;20455;-74
2023/05/20 05:23:30;;;;;;;11.23;9.30;;;;;;;16.63;55.68;95107.78;5044866;28;20494;-74
2023/05/20 05:25:56;;;;;;;12.07;9.23;;;;;;;16.63;55.23;95107.78;5043712;28;20395;-74
2023/05/20 05:28:21;;;;;;;13.82;8.00;;;;;;;16.73;56.18;95105.84;5040612;28;20507;-74
2023/05/20 05:30:50;;;;;;;7.63;6.30;;;;;;;17.01;54.01;95092.53;5028768;28;20080;-76
2023/05/20 05:33:15;;;;;;;10.02;6.85;;;;;;;17.27;54.29;95092.44;5048105;28;20021;-75
2023/05/20 05:35:43;;;;;;;10.85;7.03;;;;;;;16.91;55.42;95096.13;5044087;28;20281;-75
2023/05/20 05:38:09;;;;;;;10.73;5.78;;;;;;;16.84;55.87;95102.97;5030664;28;20458;-73
2023/05/20 05:40:35;;;;;;;7.45;5.82;;;;;;;17.27;54.93;95085.38;5009738;28;20037;-74
2023/05/20 05:43:00;;;;;;;6.50;4.78;;;;;;;17.29;53.96;95091.28;5044561;28;20430;-73
2023/05/20 05:45:25;;;;;;;8.30;5.38;;;;;;;17.71;54.50;95100.84;5044951;28;20430;-73
2023/05/20 05:47:51;;;;;;;6.70;5.32;;;;;;;17.77;54.35;95102.00;5026297;28;20025;-75
2023/05/20 05:50:16;;;;;;;5.55;4.70;;;;;;;17.73;54.19;95096.25;5042547;28;20041;-75
2023/05/20 05:52:42;;;;;;;7.25;4.50;;;;;;;17.94;52.89;95097.59;5044155;28;20083;-75
2023/05/20 05:55:08;;;;;;;5.32;4.80;;;;;;;17.98;54.00;95097.13;5045321;28;20399;-73
2023/05/20 05:57:34;;;;;;;6.75;4.80;;;;;;;18.27;53.51;95095.75;5048901;28;20029;-73
2023/05/20 05:59:59;;;;;;;5.65;4.32;;;;;;;18.57;55.21;95098.66;5046058;28;20032;-85
2023/05/20 06:02:25;;;;;;;7.70;4.65;;;;;;;18.59;51.44;95086.97;5012382;28;20037;-77
2023/05/20 06:04:50;;;;;;;5.30;4.10;;;;;;;18.94;50.42;95080.44;5041979;28;20079;-76
2023/05/20 06:07:16;;;;;;;6.90;4.18;;;;;;;18.89;50.35;95076.69;5046805;28;20410;-75
2023/05/20 06:09:42;;;;;;;5.43;4.35;;;;;;;18.94;49.05;95074.34;5047710;28;20180;-74
2023/05/20 06:12:07;;;;;;;5.85;4.30;;;;;;;18.65;49.73;95072.31;5023218;28;20059;-77
2023/05/20 06:14:33;;;;;;;6.00;4.18;;;;;;;19.13;49.33;95070.47;5012539;28;20040;-75
2023/05/20 06:16:58;;;;;;;6.30;4.22;;;;;;;19.03;49.52;95075.97;5047901;28;20399;-76
2023/05/20 06:19:24;;;;;;;6.07;4.07;;;;;;;19.16;47.27;95076.19;5050193;28;20033;-74
2023/05/20 06:21:49;;;;;;;6.22;4.20;;;;;;;19.46;49.53;95072.91;5043668;28;20025;-78
2023/05/20 06:24:15;;;;;;;5.93;4.20;;;;;;;19.34;48.51;95064.59;5029585;28;20037;-80
2023/05/20 06:26:40;;;;;;;6.45;4.03;;;;;;;19.63;47.10;95075.22;5045298;28;20038;-77
2023/05/20 06:29:06;;;;;;;6.93;4.32;;;;;;;19.58;47.46;95048.56;5049665;28;20075;-76
2023/05/20 06:31:31;;;;;;;5.00;4.38;;;;;;;19.88;47.08;95063.72;5014351;28;20032;-79
2023/05/20 06:33:56;;;;;;;6.32;4.13;;;;;;;19.77;47.74;95062.31;5047414;28;20021;-83
2023/05/20 06:36:22;;;;;;;5.40;4.05;;;;;;;20.22;46.72;95063.22;5030149;28;20025;-83
2023/05/20 06:38:47;;;;;;;6.25;4.30;;;;;;;20.40;46.25;95060.25;5045406;28;20028;-80
2023/05/20 06:41:13;;;;;;;5.93;4.30;;;;;;;20.58;44.11;95058.06;5045634;28;20487;-84
2023/05/20 06:43:39;;;;;;;5.30;4.25;;;;;;;20.33;45.80;95041.66;5049288;28;20057;-82
2023/05/20 06:46:05;;;;;;;6.53;4.10;;;;;;;20.30;45.46;95047.31;5014454;28;20465;-74
2023/05/20 06:48:30;;;;;;;5.55;4.20;;;;;;;20.50;44.80;95044.94;5046737;28;20095;-79
2023/05/20 06:50:56;;;;;;;7.93;4.15;;;;;;;20.48;44.36;95047.78;5040575;28;20061;-80
2023/05/20 06:53:21;;;;;;;6.28;4.20;;;;;;;20.46;44.32;95048.94;5047196;28;20040;-81
2023/05/20 06:55:47;;;;;;;5.47;4.57;;;;;;;20.37;45.20;95050.88;5047005;28;20086;-80
2023/05/20 06:58:12;;;;;;;6.72;4.70;;;;;;;20.67;44.83;95056.16;5046908;28;20032;-81
2023/05/20 07:00:38;;;;;;;5.57;4.43;;;;;;;20.74;45.26;95049.97;5048289;28;20103;-84
2023/05/20 07:03:03;;;;;;;5.72;4.88;;;;;;;21.12;43.74;95054.28;5026613;28;20033;-80
2023/05/20 07:05:30;;;;;;;11.93;5.18;;;;;;;21.42;43.80;95050.56;5044307;28;20061;-79
2023/05/20 07:07:55;;;;;;;10.23;4.85;;;;;;;21.27;44.59;95041.00;5026334;28;20041;-81
2023/05/20 07:10:21;;;;;;;7.47;5.20;;;;;;;21.03;44.04;95048.25;5047555;28;20411;-78
2023/05/20 07:12:46;;;;;;;12.73;5.55;;;;;;;20.86;44.72;95023.91;5045164;28;20059;-78
2023/05/20 07:15:12;;;;;;;9.30;5.35;;;;;;;21.22;44.47;95041.56;5038422;28;20517;-79
2023/05/20 07:17:37;;;;;;;10.80;4.97;;;;;;;20.78;44.74;95036.38;5042762;28;20025;-79
2023/05/20 07:20:03;;;;;;;5.35;4.63;;;;;;;20.78;44.76;95031.91;5046475;28;20036;-79
2023/05/20 07:22:29;;;;;;;7.57;5.35;;;;;;;20.90;45.17;95029.66;5040771;28;20036;-84
2023/05/20 07:24:54;;;;;;;7.10;4.80;;;;;;;21.07;43.28;95036.34;5021869;28;20061;-83
2023/05/20 07:27:20;;;;;;;6.75;4.45;;;;;;;20.97;40.99;95030.53;5034150;28;20035;-83
2023/05/20 07:29:45;;;;;;;6.63;4.80;;;;;;;21.02;41.70;95032.63;5007882;28;20041;-82
2023/05/20 07:32:11;;;;;;;5.43;4.60;;;;;;;20.67;43.25;95032.41;5031996;28;20439;-84
2023/05/20 07:34:37;;;;;;;7.65;4.75;;;;;;;20.97;42.52;95031.34;5049393;28;20525;-78
2023/05/20 07:37:02;;;;;;;6.28;4.72;;;;;;;20.85;40.87;95034.66;5040193;28;20079;-77
2023/05/20 07:39:28;;;;;;;6.18;4.72;;;;;;;20.65;42.78;95037.06;5034254;28;20037;-72
2023/05/20 07:41:53;;;;;;;6.38;4.70;;;;;;;20.86;43.13;95042.38;5050638;28;20033;-71
2023/05/20 07:44:20;;;;;;;6.75;4.93;;;;;;;20.98;43.41;95042.75;5048018;28;20038;-81
2023/05/20 07:46:46;;;;;;;6.97;4.85;;;;;;;20.86;43.92;95039.75;5025815;28;20541;-78
2023/05/20 07:49:12;;;;;;;8.00;5.07;;;;;;;20.78;43.44;95042.47;5023534;28;20033;-78
2023/05/20 07:51:37;;;;;;;6.13;4.80;;;;;;;20.75;43.70;95038.41;5039200;28;20033;-79
2023/05/20 07:54:04;;;;;;;8.43;5.35;;;;;;;20.78;43.06;95031.09;5031874;28;20029;-79
2023/05/20 07:56:29;;;;;;;5.30;4.32;;;;;;;20.77;43.44;95025.00;5021935;28;20033;-79
2023/05/20 07:58:57;;;;;;;11.30;5.10;;;;;;;21.11;42.50;95037.59;5031640;28;20052;-79
2023/05/20 08:01:23;;;;;;;6.72;4.70;;;;;;;20.76;43.87;95028.66;5050096;28;20071;-78
2023/05/20 08:03:48;;;;;;;8.25;6.18;;;;;;;20.88;42.98;95029.81;5048897;28;20021;-78
2023/05/20 08:06:13;;;;;;;7.88;4.85;;;;;;;20.90;42.45;95035.75;5032349;28;20067;-79
2023/05/20 08:08:42;;;;;;;6.63;5.10;;;;;;;20.86;42.60;95018.63;5049605;28;20495;-79
2023/05/20 08:11:07;;;;;;;7.57;5.28;;;;;;;20.41;43.82;95028.38;5049693;28;20455;-80
2023/05/20 08:13:33;;;;;;;7.45;4.43;;;;;;;20.33;44.62;95032.94;5033029;28;20086;-79
2023/05/20 08:15:58;;;;;;;6.68;4.97;;;;;;;19.84;45.68;95029.81;5032711;28;20044;-79
2023/05/20 08:18:26;;;;;;;5.63;4.75;;;;;;;20.30;44.97;95028.84;5050477;28;20032;-79
2023/05/20 08:20:51;;;;;;;6.28;5.22;;;;;;;20.52;44.15;95029.75;5048962;28;20120;-78
2023/05/20 08:23:17;;;;;;;4.95;4.32;;;;;;;20.74;45.27;95034.13;5048860;28;20033;-80
2023/05/20 08:25:42;;;;;;;7.00;5.05;;;;;;;20.20;44.22;95034.41;5050114;28;20037;-79
2023/05/20 08:28:08;;;;;;;6.13;5.18;;;;;;;20.59;44.13;95029.84;5050200;28;20033;-79
2023/05/20 08:30:33;;;;;;;7.97;4.55;;;;;;;20.39;42.97;95016.38;5050155;28;20033;-78
2023/05/20 08:32:59;;;;;;;6.95;4.95;;;;;;;20.60;43.59;95021.78;5033315;28;20033;-79
2023/05/20 08:35:25;;;;;;;5.60;4.57;;;;;;;20.89;44.20;95022.72;5050270;28;20052;-79
2023/05/20 08:37:52;;;;;;;9.43;4.85;;;;;;;21.13;43.36;95017.09;5033562;28;20415;-79
2023/05/20 08:40:19;;;;;;;5.55;4.70;;;;;;;20.89;43.63;95018.25;5033893;28;20116;-79
2023/05/20 08:42:45;;;;;;;7.78;5.35;;;;;;;21.00;41.69;95003.75;5033312;28;20381;-79
2023/05/20 08:45:12;;;;;;;8.23;4.93;;;;;;;20.65;42.12;95005.38;5050147;28;20105;-79
2023/05/20 08:47:44;;;;;;;5.93;4.50;;;;;;;20.65;43.25;95000.13;5050037;28;20051;-79
2023/05/20 08:50:10;;;;;;;6.25;4.55;;;;;;;20.97;42.32;95018.13;5050311;28;20627;-79
2023/05/20 08:52:36;;;;;;;7.10;5.03;;;;;;;20.78;43.58;95007.34;5033074;28;20021;-79
2023/05/20 08:55:02;;;;;;;7.05;5.47;;;;;;;21.05;42.43;95024.31;5017030;28;20036;-80
2023/05/20 08:57:28;;;;;;;6.95;5.22;;;;;;;21.30;43.46;95022.16;5049712;28;20152;-79
2023/05/20 08:59:54;;;;;;;7.00;5.13;;;;;;;21.44;42.13;95017.84;5016648;28;20044;-79
2023/05/20 09:02:19;;;;;;;5.88;5.00;;;;;;;21.25;42.37;94998.94;5049741;28;20029;-79
2023/05/20 09:04:45;;;;;;;7.82;5.03;;;;;;;21.32;41.88;95007.75;5049688;28;20044;-79
2023/05/20 09:07:11;;;;;;;7.75;5.65;;;;;;;21.38;42.20;94996.44;5033175;28;20029;-79
2023/05/20 09:09:36;;;;;;;7.88;5.38;;;;;;;21.20;42.26;95001.31;5049727;28;20052;-79
2023/05/20 09:12:02;;;;;;;5.90;4.70;;;;;;;21.10;42.16;94992.91;5050679;28;20087;-79
2023/05/20 09:14:28;;;;;;;5.50;4.88;;;;;;;21.04;43.39;94996.28;5033001;28;20159;-79
2023/05/20 09:16:54;;;;;;;7.13;5.00;;;;;;;21.36;43.31;95009.00;5050636;28;20085;-79
2023/05/20 09:19:21;;;;;;;5.90;4.88;;;;;;;21.44;41.74;94994.88;5050756;28;20033;-79
2023/05/20 09:21:46;;;;;;;6.40;5.30;;;;;;;21.25;42.37;94998.94;5016329;28;20040;-79
2023/05/20 09:24:12;;;;;;;7.75;5.35;;;;;;;21.11;43.85;94989.22;5050850;28;20025;-79
2023/05/20 09:26:38;;;;;;;7.43;5.25;;;;;;;21.29;41.29;94992.28;5050587;28;20025;-79
2023/05/20 09:29:03;;;;;;;6.63;5.30;;;;;;;21.34;41.20;94986.41;5049365;28;20065;-79
2023/05/20 09:31:35;;;;;;;8.05;5.13;;;;;;;21.05;41.42;94990.00;5049405;28;20029;-79
2023/05/20 09:34:00;;;;;;;8.63;5.18;;;;;;;21.20;40.84;94986.31;5034423;28;20029;-79
2023/05/20 09:36:27;;;;;;;6.68;4.70;;;;;;;21.22;41.00;94975.53;5049665;28;20025;-79
2023/05/20 09:38:53;;;;;;;9.65;4.90;;;;;;;21.00;41.71;94960.69;5016405;28;20060;-79
2023/05/20 09:41:20;;;;;;;7.28;5.18;;;;;;;20.96;42.43;94965.53;5016856;28;20040;-80
2023/05/20 09:43:46;;;;;;;6.70;5.10;;;;;;;21.22;42.41;94972.88;5032822;28;20021;-79
2023/05/20 09:46:11;;;;;;;6.18;5.10;;;;;;;21.25;42.04;94964.59;5033131;28;20021;-79
2023/05/20 09:48:37;;;;;;;10.55;5.22;;;;;;;21.08;41.53;94963.22;5033019;28;20029;-79
2023/05/20 09:51:04;;;;;;;8.80;5.10;;;;;;;20.64;42.94;94966.78;5032732;28;20028;-79
2023/05/20 09:53:29;;;;;;;5.32;4.57;;;;;;;20.91;42.99;94958.16;5049546;28;20514;-79
2023/05/20 09:55:55;;;;;;;6.93;5.13;;;;;;;20.81;41.15;94955.03;5032788;28;20098;-78
2023/05/20 09:58:21;;;;;;;6.50;4.82;;;;;;;20.41;43.60;94957.16;5049400;28;20029;-79
2023/05/20 10:00:47;;;;;;;7.28;5.00;;;;;;;20.40;42.84;94955.53;5033068;28;20029;-79
2023/05/20 10:03:12;;;;;;;9.05;5.60;;;;;;;20.47;43.10;94953.78;5050559;28;20471;-79
2023/05/20 10:06:01;;;;;;;5.40;4.45;;;;;;;20.39;41.12;94960.97;5049379;28;20037;-79
2023/05/20 10:08:45;;;;;;;7.35;4.93;;;;;;;20.20;41.92;94939.47;5049618;28;20036;-79
2023/05/20 10:11:37;;;;;;;7.38;4.63;;;;;;;20.65;43.45;94947.34;5050134;28;20033;-80
2023/05/20 10:14:41;;;;;;;9.27;5.30;;;;;;;20.79;43.22;94935.91;5053079;28;20108;-80
2023/05/20 10:17:12;;;;;;;9.30;5.20;;;;;;;21.01;43.42;94934.09;5052667;28;20047;-79
2023/05/20 10:19:38;;;;;;;8.52;5.30;;;;;;;21.14;42.22;94922.81;5052827;28;20039;-79
2023/05/20 10:22:10;;;;;;;7.68;4.30;;;;;;;21.14;41.59;94922.81;5051885;28;20025;-79
2023/05/20 10:24:42;;;;;;;7.72;5.15;;;;;;;21.15;42.64;94925.28;5051788;28;20155;-79
2023/05/20 10:27:15;;;;;;;8.93;4.60;;;;;;;21.19;40.95;94909.88;5035162;28;20033;-79
2023/05/20 10:29:42;;;;;;;7.28;4.63;;;;;;;21.37;40.46;94910.28;5052752;28;20045;-79
2023/05/20 10:32:07;;;;;;;7.00;4.70;;;;;;;21.36;40.81;94923.63;5051065;28;20086;-79
2023/05/20 10:34:43;;;;;;;7.53;3.90;;;;;;;21.24;40.41;94912.78;5035478;28;20037;-79
2023/05/20 10:37:09;;;;;;;7.28;4.15;;;;;;;21.35;40.26;94914.91;5036072;28;20100;-79
2023/05/20 10:39:35;;;;;;;5.97;4.03;;;;;;;21.17;39.26;94911.88;5050338;28;20037;-80
2023/05/20 10:42:10;;;;;;;10.20;4.40;;;;;;;21.34;39.67;94909.78;5053496;28;20040;-79
2023/05/20 10:44:42;;;;;;;6.40;3.92;;;;;;;20.94;41.09;94912.09;5035839;28;20063;-79
2023/05/20 10:47:08;;;;;;;8.00;4.03;;;;;;;20.83;41.82;94894.91;5052093;28;20017;-79
2023/05/20 10:49:34;;;;;;;6.43;3.95;;;;;;;21.11;40.91;94899.44;5035450;28;20037;-79
2023/05/20 10:51:59;;;;;;;4.82;3.92;;;;;;;20.85;40.46;94895.56;5035121;28;20042;-79
2023/05/20 10:54:25;;;;;;;6.72;4.18;;;;;;;20.80;41.25;94897.13;5035257;28;20036;-80
2023/05/20 10:56:53;;;;;;;7.70;4.32;;;;;;;20.95;40.61;94895.25;5035371;28;20509;-79
2023/05/20 10:59:20;;;;;;;7.15;4.22;;;;;;;20.85;40.52;94895.56;5051797;28;20069;-79
2023/05/20 11:01:45;;;;;;;8.13;4.63;;;;;;;20.75;41.12;94898.53;5035109;28;20483;-79
2023/05/20 11:04:14;;;;;;;7.72;4.28;;;;;;;20.70;40.74;94892.97;5018634;28;20106;-79
2023/05/20 11:06:49;;;;;;;5.53;4.53;;;;;;;20.68;41.33;94899.44;5035395;28;20506;-79
2023/05/20 11:09:14;;;;;;;6.10;4.10;;;;;;;20.69;41.55;94903.72;5051527;28;20064;-79
2023/05/20 11:11:40;;;;;;;5.35;4.40;;;;;;;20.59;40.59;94868.88;5034938;28;20029;-79
2023/05/20 11:14:05;;;;;;;8.07;4.57;;;;;;;20.83;40.54;94899.38;5051517;28;20407;-80
2023/05/20 11:16:31;;;;;;;9.50;3.80;;;;;;;20.93;40.18;94906.00;5052530;28;20060;-79
2023/05/20 11:18:56;;;;;;;4.82;3.42;;;;;;;20.85;38.58;94906.13;5051415;28;20349;-79
2023/05/20 11:21:22;;;;;;;6.03;4.00;;;;;;;20.67;40.04;94903.06;5034516;28;20032;-79
2023/05/20 11:23:50;;;;;;;5.85;4.25;;;;;;;20.63;40.49;94891.28;5033804;28;20024;-80
2023/05/20 11:26:15;;;;;;;5.30;3.72;;;;;;;20.43;40.73;94881.28;5018421;28;20028;-80
2023/05/20 11:28:41;;;;;;;4.25;3.60;;;;;;;20.20;40.93;94881.44;5051344;28;20483;-79